createdAt,value
2023-01-12T00:02:02.689Z,1003.7
2023-01-12T00:07:08.811Z,1003.7
2023-01-12T00:12:13.894Z,1003.6
2023-01-12T00:17:20.031Z,1003.7
2023-01-12T00:22:26.096Z,1003.6
2023-01-12T00:27:32.198Z,1003.3
2023-01-12T00:32:38.292Z,1003.2
2023-01-12T00:37:44.588Z,1003.4
2023-01-12T00:42:50.492Z,1003.3
2023-01-12T00:47:56.623Z,1003.3
2023-01-12T00:53:02.678Z,1003.3
2023-01-12T00:58:08.765Z,1003.2
2023-01-12T01:03:14.876Z,1003
2023-01-12T01:08:20.962Z,1003.1
2023-01-12T01:13:27.061Z,1002.8
2023-01-12T01:18:32.244Z,1002.9
2023-01-12T01:23:38.281Z,1002.9
2023-01-12T01:28:44.363Z,1002.9
2023-01-12T01:33:50.453Z,1002.9
2023-01-12T01:38:56.552Z,1002.9
2023-01-12T01:44:02.644Z,1002.6
2023-01-12T01:49:08.734Z,1002.7
2023-01-12T01:54:14.843Z,1002.5
2023-01-12T01:59:20.933Z,1002.4
2023-01-12T02:04:27.038Z,1002.3
2023-01-12T02:09:33.124Z,1002.2
2023-01-12T02:14:39.219Z,1002.1
2023-01-12T02:19:45.331Z,1002
2023-01-12T02:24:50.430Z,1002.1
2023-01-12T02:29:56.546Z,1002
2023-01-12T02:35:02.640Z,1001.9
2023-01-12T02:40:08.726Z,1001.8
2023-01-12T02:45:14.823Z,1001.6
2023-01-12T02:50:20.907Z,1001.7
2023-01-12T02:55:27.072Z,1001.7
2023-01-12T03:00:33.112Z,1001.6
2023-01-12T03:05:39.235Z,1001.6
2023-01-12T03:10:45.287Z,1001.6
2023-01-12T03:15:51.398Z,1001.6
2023-01-12T03:20:57.481Z,1001.6
2023-01-12T03:26:03.597Z,1001.4
2023-01-12T03:31:08.716Z,1001.6
2023-01-12T03:36:14.809Z,1001.5
2023-01-12T03:41:20.918Z,1001.6
2023-01-12T03:46:26.996Z,1001.5
2023-01-12T03:51:33.093Z,1001.5
2023-01-12T03:56:39.191Z,1001.4
2023-01-12T04:01:45.291Z,1001.3
2023-01-12T04:06:51.368Z,1001.3
2023-01-12T04:11:57.508Z,1001.1
2023-01-12T04:17:03.559Z,1001.2
2023-01-12T04:22:09.665Z,1001.1
2023-01-12T04:27:15.753Z,1001.1
2023-01-12T04:32:21.846Z,1001.2
2023-01-12T04:37:26.961Z,1001.3
2023-01-12T04:42:33.070Z,1001.2
2023-01-12T04:47:39.159Z,1001.1
2023-01-12T04:52:45.253Z,1001.1
2023-01-12T04:57:51.340Z,1001.1
2023-01-12T05:02:57.460Z,1001.1
2023-01-12T05:08:03.551Z,1001.1
2023-01-12T05:13:09.653Z,1001
2023-01-12T05:18:15.754Z,1001.1
2023-01-12T05:23:21.834Z,1000.9
2023-01-12T05:28:27.938Z,1000.9
2023-01-12T05:33:34.015Z,1000.8
2023-01-12T05:38:40.134Z,1000.9
2023-01-12T05:43:45.219Z,1000.8
2023-01-12T05:48:51.321Z,1000.7
2023-01-12T05:53:57.599Z,1000.7
2023-01-12T05:59:03.517Z,1000.7
2023-01-12T06:04:09.618Z,1000.8
2023-01-12T06:09:15.711Z,1000.7
2023-01-12T06:14:21.816Z,1000.5
2023-01-12T06:19:27.903Z,1000.4
2023-01-12T06:24:34.004Z,1000.5
2023-01-12T06:29:40.176Z,1000.4
2023-01-12T06:34:46.207Z,1000.4
2023-01-12T06:39:52.298Z,1000.4
2023-01-12T06:44:58.398Z,1000.4
2023-01-12T06:50:03.481Z,1000.2
2023-01-12T06:55:09.579Z,1000.3
2023-01-12T07:00:15.667Z,1000.2
2023-01-12T07:05:21.784Z,1000.1
2023-01-12T07:10:27.868Z,1000.3
2023-01-12T07:15:34.097Z,1000.2
2023-01-12T07:20:40.069Z,1000.2
2023-01-12T07:25:46.173Z,1000.2
2023-01-12T07:30:52.279Z,1000.3
2023-01-12T07:35:58.360Z,1000.2
2023-01-12T07:41:04.455Z,1000.2
2023-01-12T07:46:10.590Z,999.9
2023-01-12T07:51:16.672Z,999.7
2023-01-12T07:56:21.744Z,999.6
2023-01-12T08:01:27.934Z,999.5
2023-01-12T08:06:34.018Z,999.5
2023-01-12T08:11:40.071Z,999.6
2023-01-12T08:16:46.150Z,999.5
2023-01-12T08:21:52.235Z,999.5
2023-01-12T08:26:58.431Z,999.4
2023-01-12T08:32:04.421Z,999.4
2023-01-12T08:37:10.680Z,999.3
2023-01-12T08:42:16.787Z,999.3
2023-01-12T08:47:22.827Z,999.3
2023-01-12T08:52:28.846Z,999.2
2023-01-12T08:57:35.124Z,999.3
2023-01-12T09:02:40.013Z,999.4
2023-01-12T09:07:46.114Z,999.2
2023-01-12T09:12:52.210Z,999.2
2023-01-12T09:17:58.486Z,999.2
2023-01-12T09:23:04.415Z,999.2
2023-01-12T09:28:10.483Z,999.1
2023-01-12T09:33:16.697Z,998.8
2023-01-12T09:38:22.684Z,998.7
2023-01-12T09:43:28.778Z,998.7
2023-01-12T09:48:35.004Z,998.3
2023-01-12T09:53:40.964Z,998.5
2023-01-12T09:58:47.065Z,998.6
2023-01-12T10:03:53.162Z,998.6
2023-01-12T10:08:58.267Z,998.5
2023-01-12T10:14:04.360Z,998.6
2023-01-12T10:19:10.475Z,998.4
2023-01-12T10:24:16.556Z,998.6
2023-01-12T10:29:22.656Z,998.6
2023-01-12T10:34:28.744Z,998.7
2023-01-12T10:39:34.849Z,998.7
2023-01-12T10:44:40.979Z,998.7
2023-01-12T10:49:47.037Z,998.6
2023-01-12T10:54:53.129Z,998.8
2023-01-12T10:59:59.236Z,998.7
2023-01-12T11:05:05.333Z,998.7
2023-01-12T11:10:11.446Z,998.6
2023-01-12T11:15:16.530Z,998.7
2023-01-12T11:20:22.621Z,998.7
2023-01-12T11:25:28.733Z,998.6
2023-01-12T11:30:34.812Z,998.4
2023-01-12T11:35:40.915Z,998.5
2023-01-12T11:40:47.121Z,998.5
2023-01-12T11:45:53.112Z,998.5
2023-01-12T11:50:59.208Z,998.4
2023-01-12T11:56:05.303Z,998.5
2023-01-12T12:01:11.391Z,998.3
2023-01-12T12:06:17.494Z,998.4
2023-01-12T12:11:23.581Z,998.1
2023-01-12T12:16:29.676Z,998.1
2023-01-12T12:21:34.773Z,998.1
2023-01-12T12:26:40.876Z,997.9
2023-01-12T12:31:46.975Z,997.9
2023-01-12T12:36:53.057Z,997.9
2023-01-12T12:41:59.212Z,997.9
2023-01-12T12:47:05.268Z,997.8
2023-01-12T12:52:10.369Z,997.7
2023-01-12T12:57:16.480Z,997.7
2023-01-12T13:02:22.569Z,997.7
2023-01-12T13:07:28.671Z,997.7
2023-01-12T13:12:34.748Z,997.6
2023-01-12T13:17:40.902Z,997.6
2023-01-12T13:22:46.967Z,997.7
2023-01-12T13:27:53.035Z,997.6
2023-01-12T13:32:59.132Z,997.6
2023-01-12T13:38:05.240Z,997.6
2023-01-12T13:43:11.387Z,997.6
2023-01-12T13:48:17.444Z,997.5
2023-01-12T13:53:23.518Z,997.5
2023-01-12T13:58:28.703Z,997.4
2023-01-12T14:03:34.733Z,997.4
2023-01-12T14:08:40.827Z,997.5
2023-01-12T14:13:47.004Z,997.4
2023-01-12T14:18:53.148Z,997.4
2023-01-12T14:23:59.265Z,997.4
2023-01-12T14:29:05.379Z,997.3
2023-01-12T14:34:11.350Z,997.3
2023-01-12T14:39:17.413Z,997.3
2023-01-12T14:44:23.541Z,997.4
2023-01-12T14:49:29.679Z,997.4
2023-01-12T14:54:35.689Z,997.4
2023-01-12T14:59:41.880Z,997.5
2023-01-12T15:04:46.876Z,997.4
2023-01-12T15:09:52.994Z,997.6
2023-01-12T15:14:59.096Z,997.7
2023-01-12T15:20:05.227Z,997.7
2023-01-12T15:25:11.270Z,997.8
2023-01-12T15:30:17.365Z,997.9
2023-01-12T15:35:23.459Z,997.9
2023-01-12T15:40:29.560Z,997.8
2023-01-12T15:45:35.660Z,997.8
2023-01-12T15:50:41.753Z,997.8
2023-01-12T15:55:47.842Z,997.8
2023-01-12T16:00:53.944Z,997.8
2023-01-12T16:06:00.092Z,997.8
2023-01-12T16:11:05.147Z,997.8
2023-01-12T16:16:11.241Z,997.8
2023-01-12T16:21:17.334Z,997.7
2023-01-12T16:26:23.420Z,997.8
2023-01-12T16:31:29.519Z,997.7
2023-01-12T16:36:35.612Z,997.7
2023-01-12T16:41:41.730Z,997.7
2023-01-12T16:46:47.815Z,997.8
2023-01-12T16:51:53.914Z,997.8
2023-01-12T16:57:00.010Z,997.8
2023-01-12T17:02:06.105Z,997.7
2023-01-12T17:07:12.199Z,997.7
2023-01-12T17:12:18.281Z,997.7
2023-01-12T17:17:23.394Z,997.5
2023-01-12T17:22:29.490Z,997.7
2023-01-12T17:27:35.601Z,997.6
2023-01-12T17:32:41.686Z,997.5
2023-01-12T17:37:47.792Z,997.5
2023-01-12T17:42:53.874Z,997.5
2023-01-12T17:48:00.025Z,997.4
2023-01-12T17:53:06.067Z,997.3
2023-01-12T17:58:12.175Z,997.2
2023-01-12T18:03:18.253Z,997.2
2023-01-12T18:08:24.364Z,997.2
2023-01-12T18:13:30.457Z,997.2
2023-01-12T18:18:36.549Z,997.1
2023-01-12T18:23:42.644Z,997.2
2023-01-12T18:28:47.748Z,997.2
2023-01-12T18:33:53.847Z,997.1
2023-01-12T18:39:00.069Z,997.1
2023-01-12T18:44:06.040Z,997.1
2023-01-12T18:49:12.139Z,997.2
2023-01-12T18:54:18.221Z,997.2
2023-01-12T18:59:24.330Z,997.1
2023-01-12T19:04:30.424Z,997.2
2023-01-12T19:09:36.538Z,997.2
2023-01-12T19:14:42.610Z,997.2
2023-01-12T19:19:48.698Z,997.1
2023-01-12T19:24:54.786Z,997.1
2023-01-12T19:30:00.892Z,997
2023-01-12T19:35:06.005Z,997
2023-01-12T19:40:12.093Z,997
2023-01-12T19:45:18.200Z,996.9
2023-01-12T19:50:24.275Z,996.9
2023-01-12T19:55:30.394Z,996.9
2023-01-12T20:00:36.483Z,996.8
2023-01-12T20:05:42.564Z,996.8
2023-01-12T20:10:48.682Z,996.7
2023-01-12T20:15:54.756Z,996.7
2023-01-12T20:21:00.860Z,996.7
2023-01-12T20:26:06.946Z,996.7
2023-01-12T20:31:13.054Z,996.6
2023-01-12T20:36:19.234Z,996.6
2023-01-12T20:41:24.265Z,996.6
2023-01-12T20:46:30.505Z,996.5
2023-01-12T20:51:36.547Z,996.7
2023-01-12T20:56:42.553Z,996.6
2023-01-12T21:06:54.767Z,996.5
2023-01-12T21:12:00.858Z,996.4
2023-01-12T21:17:06.939Z,996.4
2023-01-12T21:22:13.007Z,996.4
2023-01-12T21:27:19.118Z,996.5
2023-01-12T21:32:25.203Z,996.5
2023-01-12T21:37:31.317Z,996.5
2023-01-12T21:42:37.405Z,996.4
2023-01-12T21:47:42.518Z,996.3
2023-01-12T21:52:48.665Z,996.4
2023-01-12T21:57:54.702Z,996.3
2023-01-12T22:03:00.792Z,996.3
2023-01-12T22:08:06.966Z,996.3
2023-01-12T22:13:13.019Z,996.3
2023-01-12T22:18:19.156Z,996.4
2023-01-12T22:23:25.185Z,996.4
2023-01-12T22:28:31.284Z,996.4
2023-01-12T22:33:37.460Z,996.2
2023-01-12T22:38:43.500Z,996
2023-01-12T22:43:49.556Z,996.1
2023-01-12T22:48:55.652Z,996.1
2023-01-12T22:54:00.779Z,996.1
2023-01-12T22:59:06.857Z,996
2023-01-12T23:04:12.972Z,996
2023-01-12T23:09:19.075Z,995.9
2023-01-12T23:14:25.152Z,995.8
2023-01-12T23:19:31.245Z,995.6
2023-01-12T23:24:37.341Z,995.8
2023-01-12T23:29:43.447Z,995.6
2023-01-12T23:34:49.533Z,995.7
2023-01-12T23:39:55.624Z,995.6
2023-01-12T23:45:01.725Z,995.6
2023-01-12T23:50:07.836Z,995.6
2023-01-12T23:55:13.920Z,995.6
